Agate Beach, Washington
Current Conditions -  °F | °C
As of 10:53 AM on Friday 21 Nov 2014 (Local Time) from KCLM Reporting Station
Light Rain Light Rain  
Wind Chill: 47°   Ceiling: 200
Heat Index: 47°   Visibility: 4mi
Dew Point: 45°   Wind: 3mph
Humidity: 93%   Direction: 130°SE
Pressure: 29.54"   Gusts: NA
Location:  48.1359°N, 123.734°W
Report Text: KCLM 211853Z AUTO 13003KT 4SM -RA BR BKN002 OVC060 08/07 A2954 RMK AO2 RAB1755E27B32 SLP004 P0001 T00830072
Loading
Personal Weather Stations






























Interactive Weather Map New forecast layout! Learn more

10-Day Weather Forecast

Advertisements
Track Severe Weather on mobile